sensor_id;sensor_type;location;lat;lon;timestamp;pressure;altitude;pressure_sealevel;temperature;humidity
74524;BME280;63074;44.696;10.358;2024-02-28T00:01:57;99521.25;;;42.30;26.73
74524;BME280;63074;44.696;10.358;2024-02-28T00:04:23;99520.72;;;42.23;26.81
74524;BME280;63074;44.696;10.358;2024-02-28T00:06:49;99525.94;;;42.64;26.65
74524;BME280;63074;44.696;10.358;2024-02-28T00:09:16;99513.25;;;41.76;27.00
74524;BME280;63074;44.696;10.358;2024-02-28T00:11:46;99528.25;;;40.44;27.85
74524;BME280;63074;44.696;10.358;2024-02-28T00:14:13;99525.44;;;40.57;28.18
74524;BME280;63074;44.696;10.358;2024-02-28T00:16:43;99519.47;;;42.55;26.57
74524;BME280;63074;44.696;10.358;2024-02-28T00:19:10;99528.94;;;41.55;27.33
74524;BME280;63074;44.696;10.358;2024-02-28T00:21:41;99531.44;;;41.19;27.63
74524;BME280;63074;44.696;10.358;2024-02-28T00:24:08;99529.59;;;42.03;26.65
74524;BME280;63074;44.696;10.358;2024-02-28T00:26:34;99530.97;;;41.76;26.71
74524;BME280;63074;44.696;10.358;2024-02-28T00:29:01;99539.75;;;39.82;28.49
74524;BME280;63074;44.696;10.358;2024-02-28T00:31:27;99543.19;;;38.83;29.15
74524;BME280;63074;44.696;10.358;2024-02-28T00:33:53;99538.03;;;39.43;29.98
74524;BME280;63074;44.696;10.358;2024-02-28T00:36:20;99541.78;;;40.74;28.32
74524;BME280;63074;44.696;10.358;2024-02-28T00:38:46;99539.81;;;42.09;26.95
74524;BME280;63074;44.696;10.358;2024-02-28T00:41:12;99529.72;;;41.77;26.78
74524;BME280;63074;44.696;10.358;2024-02-28T00:43:38;99538.84;;;40.65;27.69
74524;BME280;63074;44.696;10.358;2024-02-28T00:46:05;99529.63;;;38.30;30.09
74524;BME280;63074;44.696;10.358;2024-02-28T00:48:35;99531.50;;;38.16;30.47
74524;BME280;63074;44.696;10.358;2024-02-28T00:51:01;99522.78;;;36.62;32.00
74524;BME280;63074;44.696;10.358;2024-02-28T00:53:27;99521.41;;;36.16;32.58
74524;BME280;63074;44.696;10.358;2024-02-28T00:55:53;99524.75;;;38.14;31.58
74524;BME280;63074;44.696;10.358;2024-02-28T00:58:21;99533.06;;;38.54;30.44
74524;BME280;63074;44.696;10.358;2024-02-28T01:00:48;99532.13;;;38.24;30.63
74524;BME280;63074;44.696;10.358;2024-02-28T01:03:14;99522.06;;;37.28;31.27
74524;BME280;63074;44.696;10.358;2024-02-28T01:05:41;99523.94;;;38.49;30.80
74524;BME280;63074;44.696;10.358;2024-02-28T01:08:07;99526.16;;;38.91;29.76
74524;BME280;63074;44.696;10.358;2024-02-28T01:10:34;99537.38;;;40.61;28.85
74524;BME280;63074;44.696;10.358;2024-02-28T01:13:01;99543.47;;;40.59;28.12
74524;BME280;63074;44.696;10.358;2024-02-28T01:15:27;99540.84;;;41.37;27.86
74524;BME280;63074;44.696;10.358;2024-02-28T01:17:53;99544.69;;;40.84;28.26
74524;BME280;63074;44.696;10.358;2024-02-28T01:20:19;99538.19;;;41.77;27.35
74524;BME280;63074;44.696;10.358;2024-02-28T01:22:45;99551.31;;;42.55;26.75
74524;BME280;63074;44.696;10.358;2024-02-28T01:25:11;99557.41;;;42.13;26.95
74524;BME280;63074;44.696;10.358;2024-02-28T01:27:38;99566.84;;;42.91;26.46
74524;BME280;63074;44.696;10.358;2024-02-28T01:30:04;99570.22;;;43.71;25.70
74524;BME280;63074;44.696;10.358;2024-02-28T01:32:31;99565.47;;;43.32;25.61
74524;BME280;63074;44.696;10.358;2024-02-28T01:34:57;99561.38;;;43.15;26.02
74524;BME280;63074;44.696;10.358;2024-02-28T01:37:24;99564.97;;;40.78;27.95
74524;BME280;63074;44.696;10.358;2024-02-28T01:39:50;99566.84;;;41.76;26.83
74524;BME280;63074;44.696;10.358;2024-02-28T01:42:16;99563.47;;;41.46;26.96
74524;BME280;63074;44.696;10.358;2024-02-28T01:44:46;99563.03;;;39.09;29.36
74524;BME280;63074;44.696;10.358;2024-02-28T01:47:13;99558.56;;;39.40;28.52
74524;BME280;63074;44.696;10.358;2024-02-28T01:49:40;99566.28;;;40.23;28.65
74524;BME280;63074;44.696;10.358;2024-02-28T01:52:08;99568.59;;;39.99;28.21
74524;BME280;63074;44.696;10.358;2024-02-28T01:54:35;99576.88;;;38.83;29.97
74524;BME280;63074;44.696;10.358;2024-02-28T01:57:02;99569.13;;;37.36;31.81
74524;BME280;63074;44.696;10.358;2024-02-28T01:59:29;99573.69;;;40.04;29.22
74524;BME280;63074;44.696;10.358;2024-02-28T02:01:57;99574.38;;;41.57;27.55
74524;BME280;63074;44.696;10.358;2024-02-28T02:04:23;99581.25;;;39.33;29.26
74524;BME280;63074;44.696;10.358;2024-02-28T02:06:49;99580.72;;;37.38;30.89
74524;BME280;63074;44.696;10.358;2024-02-28T02:09:16;99583.34;;;38.28;30.53
74524;BME280;63074;44.696;10.358;2024-02-28T02:11:43;99580.09;;;39.31;29.35
74524;BME280;63074;44.696;10.358;2024-02-28T02:14:09;99573.81;;;38.78;29.90
74524;BME280;63074;44.696;10.358;2024-02-28T02:16:36;99581.34;;;40.16;28.27
74524;BME280;63074;44.696;10.358;2024-02-28T02:19:03;99578.16;;;40.69;28.09
74524;BME280;63074;44.696;10.358;2024-02-28T02:21:40;99579.84;;;40.41;28.33
74524;BME280;63074;44.696;10.358;2024-02-28T02:24:08;99584.00;;;39.21;29.55
74524;BME280;63074;44.696;10.358;2024-02-28T02:26:34;99585.34;;;39.61;29.02
74524;BME280;63074;44.696;10.358;2024-02-28T02:29:00;99587.56;;;41.26;27.56
74524;BME280;63074;44.696;10.358;2024-02-28T02:31:26;99587.47;;;42.07;26.82
74524;BME280;63074;44.696;10.358;2024-02-28T02:33:53;99595.06;;;40.69;28.09
74524;BME280;63074;44.696;10.358;2024-02-28T02:36:21;99595.97;;;40.91;27.56
74524;BME280;63074;44.696;10.358;2024-02-28T02:38:47;99591.47;;;40.14;28.85
74524;BME280;63074;44.696;10.358;2024-02-28T02:41:13;99587.56;;;37.10;30.87
74524;BME280;63074;44.696;10.358;2024-02-28T02:43:39;99592.25;;;34.82;33.64
74524;BME280;63074;44.696;10.358;2024-02-28T02:46:06;99592.78;;;37.35;30.36
74524;BME280;63074;44.696;10.358;2024-02-28T02:48:32;99594.44;;;38.51;30.51
74524;BME280;63074;44.696;10.358;2024-02-28T02:50:58;99600.06;;;39.20;29.30
74524;BME280;63074;44.696;10.358;2024-02-28T02:53:25;99595.75;;;38.83;29.72
74524;BME280;63074;44.696;10.358;2024-02-28T02:55:51;99611.75;;;40.09;28.48
74524;BME280;63074;44.696;10.358;2024-02-28T02:58:17;99609.25;;;38.72;29.47
74524;BME280;63074;44.696;10.358;2024-02-28T03:00:43;99605.19;;;38.73;29.61
74524;BME280;63074;44.696;10.358;2024-02-28T03:03:09;99614.78;;;37.80;30.32
74524;BME280;63074;44.696;10.358;2024-02-28T03:05:35;99624.69;;;40.19;28.75
74524;BME280;63074;44.696;10.358;2024-02-28T03:08:01;99623.09;;;39.76;28.34
74524;BME280;63074;44.696;10.358;2024-02-28T03:10:28;99621.25;;;39.70;28.25
74524;BME280;63074;44.696;10.358;2024-02-28T03:12:54;99625.25;;;38.91;29.43
74524;BME280;63074;44.696;10.358;2024-02-28T03:15:21;99624.28;;;38.98;29.46
74524;BME280;63074;44.696;10.358;2024-02-28T03:17:47;99627.88;;;38.98;29.18
74524;BME280;63074;44.696;10.358;2024-02-28T03:20:13;99625.84;;;38.46;29.77
74524;BME280;63074;44.696;10.358;2024-02-28T03:22:40;99629.31;;;37.95;29.90
74524;BME280;63074;44.696;10.358;2024-02-28T03:25:07;99634.34;;;38.63;29.70
74524;BME280;63074;44.696;10.358;2024-02-28T03:27:33;99633.19;;;37.58;30.79
74524;BME280;63074;44.696;10.358;2024-02-28T03:29:59;99628.28;;;36.65;31.65
74524;BME280;63074;44.696;10.358;2024-02-28T03:32:26;99638.56;;;36.98;31.11
74524;BME280;63074;44.696;10.358;2024-02-28T03:34:53;99635.00;;;37.25;31.14
74524;BME280;63074;44.696;10.358;2024-02-28T03:37:19;99637.03;;;39.19;29.46
74524;BME280;63074;44.696;10.358;2024-02-28T03:39:45;99637.38;;;38.32;30.08
74524;BME280;63074;44.696;10.358;2024-02-28T03:42:11;99639.03;;;39.02;29.56
74524;BME280;63074;44.696;10.358;2024-02-28T03:44:37;99646.81;;;36.21;32.36
74524;BME280;63074;44.696;10.358;2024-02-28T03:47:04;99644.78;;;35.50;33.32
74524;BME280;63074;44.696;10.358;2024-02-28T03:49:30;99642.53;;;33.42;35.38
74524;BME280;63074;44.696;10.358;2024-02-28T03:51:56;99650.31;;;35.02;33.70
74524;BME280;63074;44.696;10.358;2024-02-28T03:54:23;99647.16;;;35.93;33.02
74524;BME280;63074;44.696;10.358;2024-02-28T03:56:49;99643.34;;;35.28;34.10
74524;BME280;63074;44.696;10.358;2024-02-28T03:59:15;99645.25;;;34.86;33.87
74524;BME280;63074;44.696;10.358;2024-02-28T04:01:41;99654.66;;;35.99;32.33
74524;BME280;63074;44.696;10.358;2024-02-28T04:04:07;99644.25;;;37.68;31.24
74524;BME280;63074;44.696;10.358;2024-02-28T04:06:33;99654.91;;;36.12;32.69
74524;BME280;63074;44.696;10.358;2024-02-28T04:09:00;99654.59;;;35.65;32.25
74524;BME280;63074;44.696;10.358;2024-02-28T04:11:26;99652.91;;;36.77;31.82
74524;BME280;63074;44.696;10.358;2024-02-28T04:13:52;99655.16;;;38.06;30.10
74524;BME280;63074;44.696;10.358;2024-02-28T04:16:18;99656.78;;;36.87;31.42
74524;BME280;63074;44.696;10.358;2024-02-28T04:18:45;99647.59;;;38.62;30.04
74524;BME280;63074;44.696;10.358;2024-02-28T04:21:11;99647.31;;;33.41;36.66
74524;BME280;63074;44.696;10.358;2024-02-28T04:23:37;99655.03;;;35.15;33.57
74524;BME280;63074;44.696;10.358;2024-02-28T04:26:04;99643.75;;;37.50;31.33
74524;BME280;63074;44.696;10.358;2024-02-28T04:28:30;99668.34;;;36.28;31.57
74524;BME280;63074;44.696;10.358;2024-02-28T04:30:56;99672.41;;;36.53;31.01
74524;BME280;63074;44.696;10.358;2024-02-28T04:33:22;99666.56;;;35.66;33.32
74524;BME280;63074;44.696;10.358;2024-02-28T04:35:49;99669.84;;;34.32;35.76
74524;BME280;63074;44.696;10.358;2024-02-28T04:38:15;99679.50;;;36.31;39.55
74524;BME280;63074;44.696;10.358;2024-02-28T04:40:41;99684.38;;;35.82;37.79
74524;BME280;63074;44.696;10.358;2024-02-28T04:43:07;99678.00;;;34.71;36.74
74524;BME280;63074;44.696;10.358;2024-02-28T04:45:33;99693.91;;;36.30;35.92
74524;BME280;63074;44.696;10.358;2024-02-28T04:47:59;99696.53;;;36.40;35.69
74524;BME280;63074;44.696;10.358;2024-02-28T04:50:26;99697.91;;;35.88;35.58
74524;BME280;63074;44.696;10.358;2024-02-28T04:52:52;99696.88;;;34.39;37.23
74524;BME280;63074;44.696;10.358;2024-02-28T04:55:18;99693.00;;;35.54;36.80
74524;BME280;63074;44.696;10.358;2024-02-28T04:57:44;99692.78;;;36.20;36.30
74524;BME280;63074;44.696;10.358;2024-02-28T05:00:11;99700.31;;;36.91;34.69
74524;BME280;63074;44.696;10.358;2024-02-28T05:02:38;99698.66;;;36.94;33.87
74524;BME280;63074;44.696;10.358;2024-02-28T05:05:04;99698.38;;;36.54;33.98
74524;BME280;63074;44.696;10.358;2024-02-28T05:07:30;99710.31;;;35.86;35.44
74524;BME280;63074;44.696;10.358;2024-02-28T05:09:56;99711.06;;;35.46;35.44
74524;BME280;63074;44.696;10.358;2024-02-28T05:12:23;99713.16;;;35.28;36.00
74524;BME280;63074;44.696;10.358;2024-02-28T05:14:49;99712.38;;;35.31;36.27
74524;BME280;63074;44.696;10.358;2024-02-28T05:17:15;99729.31;;;37.04;33.72
74524;BME280;63074;44.696;10.358;2024-02-28T05:19:42;99729.06;;;37.72;33.34
74524;BME280;63074;44.696;10.358;2024-02-28T05:22:09;99724.78;;;36.15;33.97
74524;BME280;63074;44.696;10.358;2024-02-28T05:24:37;99730.72;;;37.70;31.98
74524;BME280;63074;44.696;10.358;2024-02-28T05:27:03;99737.81;;;36.33;33.51
74524;BME280;63074;44.696;10.358;2024-02-28T05:29:29;99740.09;;;35.56;34.89
74524;BME280;63074;44.696;10.358;2024-02-28T05:31:55;99738.06;;;37.60;32.46
74524;BME280;63074;44.696;10.358;2024-02-28T05:34:22;99743.66;;;39.58;30.52
74524;BME280;63074;44.696;10.358;2024-02-28T05:36:48;99749.81;;;40.02;29.73
74524;BME280;63074;44.696;10.358;2024-02-28T05:39:16;99759.00;;;39.37;30.07
74524;BME280;63074;44.696;10.358;2024-02-28T05:41:42;99753.78;;;38.24;31.02
74524;BME280;63074;44.696;10.358;2024-02-28T05:44:08;99753.16;;;40.26;29.82
74524;BME280;63074;44.696;10.358;2024-02-28T05:46:34;99771.53;;;40.88;28.74
74524;BME280;63074;44.696;10.358;2024-02-28T05:49:03;99775.31;;;40.24;29.09
74524;BME280;63074;44.696;10.358;2024-02-28T05:51:29;99783.63;;;40.43;28.81
74524;BME280;63074;44.696;10.358;2024-02-28T05:53:55;99777.31;;;38.50;30.65
74524;BME280;63074;44.696;10.358;2024-02-28T05:56:21;99786.72;;;39.71;29.56
74524;BME280;63074;44.696;10.358;2024-02-28T05:58:48;99787.03;;;39.41;29.60
74524;BME280;63074;44.696;10.358;2024-02-28T06:01:18;99788.72;;;37.19;32.08
74524;BME280;63074;44.696;10.358;2024-02-28T06:03:47;99792.25;;;39.75;30.27
74524;BME280;63074;44.696;10.358;2024-02-28T06:06:13;99796.56;;;39.11;30.19
74524;BME280;63074;44.696;10.358;2024-02-28T06:08:40;99802.78;;;40.36;28.78
74524;BME280;63074;44.696;10.358;2024-02-28T06:11:07;99795.50;;;38.65;30.21
74524;BME280;63074;44.696;10.358;2024-02-28T06:13:33;99803.69;;;39.15;30.02
74524;BME280;63074;44.696;10.358;2024-02-28T06:15:59;99805.94;;;39.04;30.06
74524;BME280;63074;44.696;10.358;2024-02-28T06:18:26;99796.72;;;39.56;29.55
74524;BME280;63074;44.696;10.358;2024-02-28T06:20:56;99792.16;;;37.84;31.10
74524;BME280;63074;44.696;10.358;2024-02-28T06:23:26;99800.53;;;35.91;32.80
74524;BME280;63074;44.696;10.358;2024-02-28T06:25:52;99799.22;;;37.42;31.84
74524;BME280;63074;44.696;10.358;2024-02-28T06:28:18;99804.06;;;35.98;34.15
74524;BME280;63074;44.696;10.358;2024-02-28T06:30:44;99808.63;;;38.48;31.22
74524;BME280;63074;44.696;10.358;2024-02-28T06:33:12;99810.31;;;37.99;31.90
74524;BME280;63074;44.696;10.358;2024-02-28T06:35:39;99811.28;;;37.89;31.85
74524;BME280;63074;44.696;10.358;2024-02-28T06:38:05;99819.69;;;35.26;34.25
74524;BME280;63074;44.696;10.358;2024-02-28T06:40:32;99823.56;;;38.22;31.92
74524;BME280;63074;44.696;10.358;2024-02-28T06:42:58;99832.81;;;37.96;31.40
74524;BME280;63074;44.696;10.358;2024-02-28T06:45:24;99832.44;;;37.94;31.41
74524;BME280;63074;44.696;10.358;2024-02-28T06:47:50;99839.38;;;37.32;31.05
74524;BME280;63074;44.696;10.358;2024-02-28T06:50:17;99835.00;;;34.97;34.37
74524;BME280;63074;44.696;10.358;2024-02-28T06:52:43;99833.84;;;36.15;33.68
74524;BME280;63074;44.696;10.358;2024-02-28T06:55:09;99841.19;;;37.15;32.75
74524;BME280;63074;44.696;10.358;2024-02-28T06:57:41;99841.91;;;34.49;35.16
74524;BME280;63074;44.696;10.358;2024-02-28T07:00:08;99842.13;;;36.33;33.04
74524;BME280;63074;44.696;10.358;2024-02-28T07:02:38;99857.78;;;36.65;32.20
74524;BME280;63074;44.696;10.358;2024-02-28T07:05:04;99857.06;;;34.13;33.95
74524;BME280;63074;44.696;10.358;2024-02-28T07:07:33;99860.13;;;35.00;34.17
74524;BME280;63074;44.696;10.358;2024-02-28T07:09:59;99862.88;;;35.07;34.36
74524;BME280;63074;44.696;10.358;2024-02-28T07:12:26;99859.66;;;35.12;34.95
74524;BME280;63074;44.696;10.358;2024-02-28T07:14:52;99871.25;;;35.84;33.74
74524;BME280;63074;44.696;10.358;2024-02-28T07:17:18;99873.03;;;36.12;34.11
74524;BME280;63074;44.696;10.358;2024-02-28T07:19:44;99880.88;;;38.44;30.55
74524;BME280;63074;44.696;10.358;2024-02-28T07:22:11;99890.75;;;38.76;31.04
74524;BME280;63074;44.696;10.358;2024-02-28T07:24:37;99900.66;;;39.24;29.88
74524;BME280;63074;44.696;10.358;2024-02-28T07:27:03;99898.56;;;36.66;32.12
74524;BME280;63074;44.696;10.358;2024-02-28T07:29:30;99892.47;;;34.73;34.76
74524;BME280;63074;44.696;10.358;2024-02-28T07:31:56;99902.00;;;35.88;33.81
74524;BME280;63074;44.696;10.358;2024-02-28T07:34:22;99899.25;;;36.77;33.34
74524;BME280;63074;44.696;10.358;2024-02-28T07:36:49;99914.53;;;37.40;32.80
74524;BME280;63074;44.696;10.358;2024-02-28T07:39:16;99921.91;;;38.38;30.93
74524;BME280;63074;44.696;10.358;2024-02-28T07:41:42;99912.97;;;38.43;30.94
74524;BME280;63074;44.696;10.358;2024-02-28T07:44:08;99914.44;;;37.47;31.93
74524;BME280;63074;44.696;10.358;2024-02-28T07:46:35;99918.63;;;38.87;30.34
74524;BME280;63074;44.696;10.358;2024-02-28T07:49:02;99918.91;;;39.71;29.83
74524;BME280;63074;44.696;10.358;2024-02-28T07:51:28;99915.44;;;39.64;29.78
74524;BME280;63074;44.696;10.358;2024-02-28T07:53:55;99926.34;;;39.98;28.96
74524;BME280;63074;44.696;10.358;2024-02-28T07:56:22;99930.00;;;40.76;28.53
74524;BME280;63074;44.696;10.358;2024-02-28T07:58:48;99913.38;;;37.65;31.28
74524;BME280;63074;44.696;10.358;2024-02-28T08:01:14;99921.22;;;37.20;31.92
74524;BME280;63074;44.696;10.358;2024-02-28T08:03:42;99915.78;;;37.36;31.37
74524;BME280;63074;44.696;10.358;2024-02-28T08:06:09;99914.19;;;38.89;30.88
74524;BME280;63074;44.696;10.358;2024-02-28T08:08:36;99917.97;;;36.42;33.52
74524;BME280;63074;44.696;10.358;2024-02-28T08:11:02;99924.69;;;36.48;31.28
74524;BME280;63074;44.696;10.358;2024-02-28T08:13:29;99928.59;;;38.21;31.35
74524;BME280;63074;44.696;10.358;2024-02-28T08:15:56;99931.44;;;38.68;30.89
74524;BME280;63074;44.696;10.358;2024-02-28T08:18:22;99940.34;;;37.55;31.40
74524;BME280;63074;44.696;10.358;2024-02-28T08:20:48;99940.88;;;38.04;31.12
74524;BME280;63074;44.696;10.358;2024-02-28T08:23:15;99953.31;;;38.53;30.94
74524;BME280;63074;44.696;10.358;2024-02-28T08:25:41;99961.28;;;38.58;30.38
74524;BME280;63074;44.696;10.358;2024-02-28T08:28:08;99968.50;;;38.32;30.81
74524;BME280;63074;44.696;10.358;2024-02-28T08:30:34;99963.75;;;37.75;31.19
74524;BME280;63074;44.696;10.358;2024-02-28T08:33:00;99970.31;;;38.69;30.76
74524;BME280;63074;44.696;10.358;2024-02-28T08:35:26;99974.97;;;38.53;31.04
74524;BME280;63074;44.696;10.358;2024-02-28T08:37:52;99982.00;;;39.11;30.21
74524;BME280;63074;44.696;10.358;2024-02-28T08:40:19;99977.53;;;37.59;31.01
74524;BME280;63074;44.696;10.358;2024-02-28T08:42:45;99979.31;;;38.34;31.57
74524;BME280;63074;44.696;10.358;2024-02-28T08:45:12;99986.97;;;39.00;30.53
74524;BME280;63074;44.696;10.358;2024-02-28T08:47:38;99983.97;;;38.17;31.23
74524;BME280;63074;44.696;10.358;2024-02-28T08:50:06;99996.47;;;38.86;30.22
74524;BME280;63074;44.696;10.358;2024-02-28T08:52:32;99991.34;;;37.77;30.72
74524;BME280;63074;44.696;10.358;2024-02-28T08:54:59;99989.00;;;38.29;30.51
74524;BME280;63074;44.696;10.358;2024-02-28T08:57:25;99989.59;;;37.87;31.15
74524;BME280;63074;44.696;10.358;2024-02-28T08:59:51;99991.06;;;36.48;32.30
74524;BME280;63074;44.696;10.358;2024-02-28T09:02:17;99994.13;;;38.61;31.00
74524;BME280;63074;44.696;10.358;2024-02-28T09:04:43;99999.09;;;39.60;30.25
74524;BME280;63074;44.696;10.358;2024-02-28T09:07:10;99996.09;;;37.49;31.91
74524;BME280;63074;44.696;10.358;2024-02-28T09:09:36;100003.34;;;38.08;31.03
74524;BME280;63074;44.696;10.358;2024-02-28T09:12:06;100001.53;;;38.21;31.26
74524;BME280;63074;44.696;10.358;2024-02-28T09:14:32;100001.56;;;38.44;31.31
74524;BME280;63074;44.696;10.358;2024-02-28T09:16:58;100001.50;;;37.30;31.58
74524;BME280;63074;44.696;10.358;2024-02-28T09:19:29;99994.28;;;37.32;32.61
74524;BME280;63074;44.696;10.358;2024-02-28T09:21:56;99997.72;;;37.81;31.73
74524;BME280;63074;44.696;10.358;2024-02-28T09:24:23;99997.53;;;38.45;31.40
74524;BME280;63074;44.696;10.358;2024-02-28T09:26:50;99997.00;;;38.54;37.06
74524;BME280;63074;44.696;10.358;2024-02-28T09:29:16;99992.94;;;37.44;37.72
74524;BME280;63074;44.696;10.358;2024-02-28T09:31:42;100002.72;;;38.24;34.55
74524;BME280;63074;44.696;10.358;2024-02-28T09:34:08;99997.41;;;37.38;35.19
74524;BME280;63074;44.696;10.358;2024-02-28T09:36:45;99998.44;;;37.21;35.72
74524;BME280;63074;44.696;10.358;2024-02-28T09:39:14;99995.78;;;37.03;35.52
74524;BME280;63074;44.696;10.358;2024-02-28T09:41:46;99995.09;;;37.67;35.29
74524;BME280;63074;44.696;10.358;2024-02-28T09:44:15;100002.00;;;38.43;33.81
74524;BME280;63074;44.696;10.358;2024-02-28T09:46:42;100005.31;;;38.38;33.76
74524;BME280;63074;44.696;10.358;2024-02-28T09:49:09;100005.22;;;38.92;33.32
74524;BME280;63074;44.696;10.358;2024-02-28T09:51:37;100006.16;;;38.35;33.91
74524;BME280;63074;44.696;10.358;2024-02-28T09:54:03;100004.19;;;37.40;35.08
74524;BME280;63074;44.696;10.358;2024-02-28T09:56:31;100000.34;;;37.92;34.87
74524;BME280;63074;44.696;10.358;2024-02-28T09:58:57;100005.53;;;36.88;35.83
74524;BME280;63074;44.696;10.358;2024-02-28T10:01:26;100008.59;;;37.00;35.77
74524;BME280;63074;44.696;10.358;2024-02-28T10:03:53;100017.59;;;39.17;32.51
74524;BME280;63074;44.696;10.358;2024-02-28T10:06:20;100009.13;;;38.24;33.22
74524;BME280;63074;44.696;10.358;2024-02-28T10:08:47;100014.38;;;37.92;33.07
74524;BME280;63074;44.696;10.358;2024-02-28T10:11:23;100029.44;;;38.59;33.35
74524;BME280;63074;44.696;10.358;2024-02-28T10:13:50;100022.28;;;36.95;34.63
74524;BME280;63074;44.696;10.358;2024-02-28T10:16:18;100024.53;;;39.72;31.99
74524;BME280;63074;44.696;10.358;2024-02-28T10:18:45;100014.13;;;39.30;32.75
74524;BME280;63074;44.696;10.358;2024-02-28T10:21:11;100024.78;;;37.91;34.42
74524;BME280;63074;44.696;10.358;2024-02-28T10:23:38;100009.00;;;35.95;37.16
74524;BME280;63074;44.696;10.358;2024-02-28T10:26:04;100015.41;;;36.55;37.38
74524;BME280;63074;44.696;10.358;2024-02-28T10:28:31;100017.84;;;36.97;36.28
74524;BME280;63074;44.696;10.358;2024-02-28T10:30:57;100024.75;;;36.85;36.20
74524;BME280;63074;44.696;10.358;2024-02-28T10:33:28;100030.59;;;36.53;36.38
74524;BME280;63074;44.696;10.358;2024-02-28T10:35:55;100036.22;;;38.34;34.14
74524;BME280;63074;44.696;10.358;2024-02-28T10:38:21;100035.50;;;36.39;36.55
74524;BME280;63074;44.696;10.358;2024-02-28T10:40:49;100032.78;;;36.25;36.51
74524;BME280;63074;44.696;10.358;2024-02-28T10:43:16;100041.00;;;39.31;33.64
74524;BME280;63074;44.696;10.358;2024-02-28T10:45:46;100037.94;;;38.78;33.57
74524;BME280;63074;44.696;10.358;2024-02-28T10:48:14;100038.19;;;39.54;32.69
74524;BME280;63074;44.696;10.358;2024-02-28T10:50:43;100040.94;;;38.14;34.58
74524;BME280;63074;44.696;10.358;2024-02-28T10:53:13;100039.72;;;38.92;33.68
74524;BME280;63074;44.696;10.358;2024-02-28T10:55:41;100038.44;;;38.20;33.95
74524;BME280;63074;44.696;10.358;2024-02-28T10:58:10;100037.25;;;37.18;35.73
74524;BME280;63074;44.696;10.358;2024-02-28T11:00:42;100044.72;;;37.32;35.01
74524;BME280;63074;44.696;10.358;2024-02-28T11:03:14;100044.41;;;36.16;37.49
74524;BME280;63074;44.696;10.358;2024-02-28T11:05:44;100044.03;;;36.76;36.12
74524;BME280;63074;44.696;10.358;2024-02-28T11:08:22;100044.34;;;35.43;37.62
74524;BME280;63074;44.696;10.358;2024-02-28T11:10:56;100044.50;;;37.84;34.80
74524;BME280;63074;44.696;10.358;2024-02-28T11:13:24;100045.16;;;36.86;36.13
74524;BME280;63074;44.696;10.358;2024-02-28T11:15:51;100035.63;;;36.17;35.92
74524;BME280;63074;44.696;10.358;2024-02-28T11:18:17;100035.81;;;37.78;35.16
74524;BME280;63074;44.696;10.358;2024-02-28T11:20:44;100041.00;;;37.80;34.05
74524;BME280;63074;44.696;10.358;2024-02-28T11:23:13;100036.44;;;37.56;35.30
74524;BME280;63074;44.696;10.358;2024-02-28T11:25:41;100037.78;;;36.58;36.71
74524;BME280;63074;44.696;10.358;2024-02-28T11:28:07;100030.00;;;35.19;38.31
74524;BME280;63074;44.696;10.358;2024-02-28T11:30:34;100025.63;;;35.15;37.57
74524;BME280;63074;44.696;10.358;2024-02-28T11:33:00;100023.59;;;36.31;36.21
74524;BME280;63074;44.696;10.358;2024-02-28T11:35:29;100015.19;;;35.47;37.94
74524;BME280;63074;44.696;10.358;2024-02-28T11:37:57;100022.84;;;34.47;39.34
74524;BME280;63074;44.696;10.358;2024-02-28T11:40:26;100011.91;;;36.40;36.82
74524;BME280;63074;44.696;10.358;2024-02-28T11:42:54;100016.91;;;36.66;36.63
74524;BME280;63074;44.696;10.358;2024-02-28T11:45:21;100016.16;;;36.62;36.93
74524;BME280;63074;44.696;10.358;2024-02-28T11:47:47;100013.97;;;36.36;37.69
74524;BME280;63074;44.696;10.358;2024-02-28T11:50:13;100012.72;;;37.30;35.90
74524;BME280;63074;44.696;10.358;2024-02-28T11:52:46;100012.84;;;36.71;36.34
74524;BME280;63074;44.696;10.358;2024-02-28T11:55:13;100007.22;;;35.28;37.91
74524;BME280;63074;44.696;10.358;2024-02-28T11:57:39;100007.81;;;35.89;38.46
74524;BME280;63074;44.696;10.358;2024-02-28T12:00:07;100009.94;;;36.89;36.08
74524;BME280;63074;44.696;10.358;2024-02-28T12:02:34;100000.81;;;35.45;38.22
74524;BME280;63074;44.696;10.358;2024-02-28T12:05:03;100008.09;;;35.00;38.60
74524;BME280;63074;44.696;10.358;2024-02-28T12:07:32;100007.91;;;35.78;37.93
74524;BME280;63074;44.696;10.358;2024-02-28T12:09:59;100004.81;;;35.41;38.89
74524;BME280;63074;44.696;10.358;2024-02-28T12:12:27;100015.75;;;37.46;35.83
74524;BME280;63074;44.696;10.358;2024-02-28T12:14:58;100018.09;;;37.13;35.93
74524;BME280;63074;44.696;10.358;2024-02-28T12:17:26;100030.66;;;38.04;33.96
74524;BME280;63074;44.696;10.358;2024-02-28T12:19:53;100027.19;;;38.46;34.11
74524;BME280;63074;44.696;10.358;2024-02-28T12:22:19;100016.72;;;36.91;36.64
74524;BME280;63074;44.696;10.358;2024-02-28T12:24:46;100018.16;;;38.62;34.80
74524;BME280;63074;44.696;10.358;2024-02-28T12:27:12;100016.28;;;40.01;32.49
74524;BME280;63074;44.696;10.358;2024-02-28T12:29:38;100018.47;;;38.41;34.38
74524;BME280;63074;44.696;10.358;2024-02-28T12:32:04;100008.09;;;38.11;34.13
74524;BME280;63074;44.696;10.358;2024-02-28T12:34:31;100011.09;;;36.95;35.17
74524;BME280;63074;44.696;10.358;2024-02-28T12:36:57;100004.03;;;35.44;37.77
74524;BME280;63074;44.696;10.358;2024-02-28T12:39:24;100007.19;;;34.07;39.11
74524;BME280;63074;44.696;10.358;2024-02-28T12:41:50;100011.09;;;37.32;35.85
74524;BME280;63074;44.696;10.358;2024-02-28T12:44:17;100004.59;;;36.57;37.36
74524;BME280;63074;44.696;10.358;2024-02-28T12:46:43;100004.03;;;36.76;36.63